Stations météo

Publicité
Beg Melen, France (7203): Température de l'air & dewpoint: 14.08.2018 22:00:00 - 20.08.2018 22:00:00 (CEST)Beg Melen, France (7203): Vitesse du vent & gusts: 14.08.2018 22:00:00 - 20.08.2018 22:00:00 (CEST)Beg Melen, France (7203): Direction du vent: 14.08.2018 22:00:00 - 20.08.2018 22:00:00 (CEST)Beg Melen, France (7203): visibility: 14.08.2018 22:00:00 - 20.08.2018 22:00:00 (CEST)Beg Melen, France (7203): Quantités de précipitations: 14.08.2018 22:00:00 - 20.08.2018 22:00:00 (CEST)
Date & Time tt [°C] td [°C] ff [km/h] ff [knt] fx [km/h] fx [knt] dd vv [km] rr [mm]
20.08.2018 22:00:00 19,3 18,3 11 6 24 13 NW - 0,0
20.08.2018 21:00:00 19,0 17,8 18 10 35 19 W - 0,0
20.08.2018 20:00:00 19,5 17,8 15 8 31 17 W 30 0,0
20.08.2018 19:00:00 19,9 17,9 15 8 36 19 W - 0,0
20.08.2018 18:00:00 20,7 18,5 16 9 33 18 W - 0,0
20.08.2018 17:00:00 20,8 18,4 16 8 34 18 W 20 0,0
20.08.2018 16:00:00 20,8 18,6 20 11 32 17 WSW - 0,0
20.08.2018 15:00:00 22,1 18,7 18 10 29 16 WSW - 0,0
20.08.2018 14:00:00 22,5 18,7 9 5 22 12 WSW 20 0,0
20.08.2018 13:00:00 22,7 19,3 10 5 16 9 W - 0,0
20.08.2018 12:00:00 19,8 19,3 8 5 21 11 WNW - 0,0
20.08.2018 11:00:00 19,1 18,9 10 5 19 11 NW 6 0,0
20.08.2018 10:00:00 18,8 18,6 11 6 16 9 WNW - 0,0
20.08.2018 09:00:00 18,6 18,4 11 6 16 8 WNW - 0,0
20.08.2018 08:00:00 18,6 18,4 9 5 18 10 WNW 2,0 0,0
20.08.2018 07:00:00 18,4 18,2 11 6 20 11 NW - 0,0
20.08.2018 06:00:00 18,4 18,2 14 7 23 12 NW - 0,0
20.08.2018 05:00:00 18,5 18,2 14 7 19 10 NW 10 0,0
20.08.2018 04:00:00 18,5 18,2 13 7 22 12 WNW - 0,0
20.08.2018 03:00:00 18,6 18,3 15 8 28 15 NW - 0,0
20.08.2018 02:00:00 18,5 18,0 18 10 27 14 WNW 20 0,0
20.08.2018 01:00:00 18,5 18,0 18 10 32 17 WNW - 0,0
20.08.2018 00:00:00 18,5 18,0 22 12 34 18 WNW - 0,0
19.08.2018 23:00:00 18,6 17,9 24 13 38 20 WNW 20 0,0
19.08.2018 22:00:00 18,7 17,9 24 13 34 19 WNW - 0,0
19.08.2018 21:00:00 18,7 17,7 27 15 42 23 W - 0,0
19.08.2018 20:00:00 18,9 17,6 33 18 45 25 W 20 0,0
19.08.2018 19:00:00 19,2 17,2 37 20 53 28 W - 0,0
19.08.2018 18:00:00 19,9 17,1 34 18 53 28 W - 0,0
19.08.2018 17:00:00 20,1 16,9 23 12 44 24 W 30 0,0
19.08.2018 16:00:00 20,1 16,1 23 12 42 23 W - 0,0
19.08.2018 15:00:00 20,2 15,8 19 11 36 19 W - 0,0
19.08.2018 14:00:00 20,3 16,1 18 10 36 20 W 25 0,0
19.08.2018 13:00:00 20,0 16,0 17 9 32 17 W - 0,0
19.08.2018 12:00:00 19,5 15,6 14 7 28 15 W - 0,0
19.08.2018 11:00:00 18,8 15,1 16 8 29 16 W 25 0,0
19.08.2018 10:00:00 18,1 15,0 17 9 34 18 W - 0,0
19.08.2018 09:00:00 17,4 14,9 17 9 31 17 W - 0,0
19.08.2018 08:00:00 17,0 14,8 21 11 29 15 W 30 0,0
19.08.2018 07:00:00 16,8 14,8 21 11 28 15 W - 0,0
19.08.2018 06:00:00 16,5 15,2 10 6 19 10 WNW - 0,0
19.08.2018 05:00:00 16,6 15,0 10 5 22 12 NW 25 0,0
19.08.2018 04:00:00 16,6 14,8 11 6 18 10 NW - 0,0
19.08.2018 03:00:00 16,5 14,3 8 4 21 12 NNW - 0,0
19.08.2018 02:00:00 16,8 14,3 12 6 25 13 NW 30 0,0
19.08.2018 01:00:00 17,0 14,1 15 8 29 15 NW - 0,0
19.08.2018 00:00:00 17,2 13,9 19 11 34 18 NW - 0,0
18.08.2018 23:00:00 17,4 14,3 27 14 36 19 WNW 30 0,0
18.08.2018 22:00:00 17,4 14,3 24 13 34 18 W - 0,0
18.08.2018 21:00:00 17,6 14,1 18 10 32 18 W - 0,0
18.08.2018 20:00:00 18,5 13,4 15 8 32 17 W 35 0,0
18.08.2018 19:00:00 19,2 13,1 16 9 29 15 W - 0,0
18.08.2018 18:00:00 20,0 13,2 15 8 29 16 W - 0,0
18.08.2018 17:00:00 20,4 13,4 14 7 29 15 W 35 0,0
18.08.2018 16:00:00 20,5 12,7 16 8 26 14 W - 0,0
18.08.2018 15:00:00 20,7 13,4 16 8 23 13 WNW - 0,0
18.08.2018 14:00:00 20,6 13,1 13 7 22 12 WNW 25 0,0
18.08.2018 13:00:00 20,8 12,7 11 6 18 10 W - 0,0
18.08.2018 12:00:00 20,3 13,3 12 7 20 11 W - 0,0
18.08.2018 11:00:00 19,2 13,4 9 5 18 10 W 25 0,0
18.08.2018 10:00:00 17,8 14,5 8 5 15 8 SW - 0,0
18.08.2018 09:00:00 16,0 14,7 9 5 11 6 S - 0,0
18.08.2018 08:00:00 13,5 12,6 10 5 12 7 S 35 0,0
18.08.2018 07:00:00 12,6 11,3 11 6 12 7 S - 0,0
18.08.2018 06:00:00 13,4 11,8 3 1 5 3 SE - 0,0
18.08.2018 05:00:00 14,0 12,2 5 3 9 5 NNE 25 0,0
18.08.2018 04:00:00 15,0 12,5 8 4 22 12 NNE - 0,0
18.08.2018 03:00:00 15,9 13,2 19 10 27 15 N - 0,0
18.08.2018 02:00:00 16,2 13,3 22 12 30 16 N 30 0,0
18.08.2018 01:00:00 16,6 13,1 16 9 34 18 NNW - 0,0
18.08.2018 00:00:00 17,1 12,8 19 11 36 20 NNW - 0,0
17.08.2018 23:00:00 17,5 12,2 18 10 45 24 NW 30 0,0
17.08.2018 22:00:00 18,1 12,3 29 16 44 24 NW - 0,0
17.08.2018 21:00:00 18,2 12,6 22 12 40 22 WNW - 0,0
17.08.2018 20:00:00 19,2 13,1 30 16 40 22 W 35 0,0
17.08.2018 19:00:00 19,7 13,4 28 15 40 21 WNW - 0,0
17.08.2018 18:00:00 19,1 12,6 29 15 44 24 W - 0,0
17.08.2018 17:00:00 18,6 12,3 31 17 45 24 W 30 0,0
17.08.2018 16:00:00 20,5 12,7 21 12 32 17 W - 0,0
17.08.2018 15:00:00 18,6 13,2 23 13 35 19 W - 0,0
17.08.2018 14:00:00 18,7 12,9 22 12 31 17 W 25 0,0
17.08.2018 13:00:00 19,8 12,8 13 7 22 12 W - 0,0
17.08.2018 12:00:00 18,8 13,0 14 7 22 12 WNW - 0,0
17.08.2018 11:00:00 17,7 12,6 12 7 23 12 NW 25 0,0
17.08.2018 10:00:00 16,5 12,3 13 7 21 11 NW - 0,0
17.08.2018 09:00:00 15,7 12,6 8 5 20 11 NNW - 0,0
17.08.2018 08:00:00 15,0 12,7 16 9 28 15 N 25 0,0
17.08.2018 07:00:00 15,0 12,7 18 10 34 18 NNW - 0,0
17.08.2018 06:00:00 15,2 12,9 18 10 36 19 NNW - 0,0
17.08.2018 05:00:00 15,3 12,6 21 11 36 19 NNW 25 0,0
17.08.2018 04:00:00 15,1 12,8 23 12 39 21 NNW - 0,0
17.08.2018 03:00:00 15,3 12,6 26 14 37 20 N - 0,0
17.08.2018 02:00:00 15,4 12,3 29 16 39 21 N 30 0,0
17.08.2018 01:00:00 15,8 12,4 24 13 38 20 NNW - 0,0
17.08.2018 00:00:00 16,2 12,2 29 16 39 21 N - 0,0
16.08.2018 23:00:00 16,9 12,0 31 17 41 22 N 30 0,0
16.08.2018 22:00:00 17,7 11,0 32 18 46 25 NNW - 0,0
16.08.2018 21:00:00 18,4 11,2 36 20 48 26 N - 0,0
16.08.2018 20:00:00 19,1 11,4 33 18 44 24 N 30 0,0
16.08.2018 19:00:00 18,7 14,2 17 9 33 18 NNW - 0,0
16.08.2018 18:00:00 18,1 13,8 29 16 40 22 N - 0,0
16.08.2018 17:00:00 18,7 14,4 26 14 45 24 N 30 0,0
16.08.2018 16:00:00 19,5 16,9 21 12 31 17 WNW - 0,0
16.08.2018 15:00:00 18,6 17,1 21 12 37 20 W - 0,0
16.08.2018 14:00:00 19,9 16,7 29 16 42 23 W 25 0,0
16.08.2018 13:00:00 20,2 16,6 19 10 34 19 W - 0,0
16.08.2018 12:00:00 19,6 16,6 17 9 39 21 W - 0,0
16.08.2018 11:00:00 19,3 16,0 10 5 27 15 W 35 0,0
16.08.2018 10:00:00 18,9 15,8 10 5 26 14 WSW - 0,0
16.08.2018 09:00:00 18,1 15,4 9 5 15 8 WSW - 0,0
16.08.2018 08:00:00 17,4 15,0 8 4 30 16 W 30 0,0
16.08.2018 07:00:00 17,6 15,2 19 11 26 14 WNW - 0,0
16.08.2018 06:00:00 17,4 15,0 9 5 24 13 NW - 0,0
16.08.2018 05:00:00 17,6 15,4 16 9 29 15 WNW 20 0,0
16.08.2018 04:00:00 17,6 15,4 19 10 31 17 NW - 0,0
16.08.2018 03:00:00 17,3 15,3 18 10 29 16 NW - 0,0
16.08.2018 02:00:00 17,6 15,4 15 8 28 15 NW 25 0,0
16.08.2018 01:00:00 17,8 15,2 16 9 33 18 NW - 0,0
16.08.2018 00:00:00 18,1 15,5 23 13 36 19 NW - 0,0
15.08.2018 23:00:00 18,3 15,7 23 12 33 18 NW 25 0,0
15.08.2018 22:00:00 18,3 15,7 19 10 30 16 WNW - 0,0
15.08.2018 21:00:00 18,9 16,1 16 9 23 13 WNW - 0,0
15.08.2018 20:00:00 19,9 15,5 15 8 28 15 W 25 0,0
15.08.2018 19:00:00 20,8 15,6 18 10 22 12 WNW - 0,0
15.08.2018 18:00:00 21,0 16,0 12 7 24 13 W - 0,0
15.08.2018 17:00:00 21,7 17,1 13 7 21 12 W 25 0,0
15.08.2018 16:00:00 21,4 17,0 13 7 25 13 W - 0,0
15.08.2018 15:00:00 22,4 16,0 11 6 19 11 W - 0,0
15.08.2018 14:00:00 21,0 16,4 10 5 17 9 W 20 0,0
15.08.2018 13:00:00 20,6 16,8 4 2 10 5 W - 0,0
15.08.2018 12:00:00 19,7 16,7 4 2 11 6 W - 0,0
15.08.2018 11:00:00 19,2 17,2 2 1 9 5 NW 20 0,0
15.08.2018 10:00:00 18,6 16,7 2 1 8 5 N - 0,0
15.08.2018 09:00:00 17,8 16,3 6 4 19 10 WNW - 0,0
15.08.2018 08:00:00 17,8 16,1 9 5 18 10 NW 20 0,0
15.08.2018 07:00:00 17,8 16,3 13 7 23 13 NW - 0,0
15.08.2018 06:00:00 17,5 15,3 8 5 17 9 NW - 0,0
15.08.2018 05:00:00 17,4 14,5 11 6 22 12 NNW 20 0,0
15.08.2018 04:00:00 17,8 14,9 21 11 29 16 N - 0,0
15.08.2018 03:00:00 17,6 15,6 19 11 29 16 N - 0,0
15.08.2018 02:00:00 17,8 16,1 18 10 36 19 NNW 25 0,0
15.08.2018 01:00:00 18,1 16,6 25 13 36 19 NW - 0,0
15.08.2018 00:00:00 18,7 17,4 23 13 39 21 WNW - 0,0
14.08.2018 23:00:00 19,0 17,5 26 14 37 20 NW 25 0,0
14.08.2018 22:00:00 18,8 17,6 29 16 48 26 WNW - 0,0

tt = Température de l'air
td = dewpoint
ff = Vitesse du vent
fx = gusts
dd = Direction du vent
vv = visibility
rr = Quantités de précipitations

stations d'obs. à proximité